createdAt,value
2019-05-14T00:00:54.371Z,59.12
2019-05-14T00:02:03.301Z,59.41
2019-05-14T00:03:08.212Z,59.79
2019-05-14T00:04:19.375Z,59.79
2019-05-14T00:05:12.097Z,59.99
2019-05-14T00:06:24.403Z,59.60
2019-05-14T00:07:29.437Z,60.08
2019-05-14T00:08:34.248Z,60.27
2019-05-14T00:09:41.406Z,60.84
2019-05-14T00:10:43.590Z,60.46
2019-05-14T00:11:51.078Z,60.36
2019-05-14T00:12:51.178Z,60.36
2019-05-14T00:14:03.466Z,60.52
2019-05-14T00:15:11.059Z,61.10
2019-05-14T00:16:14.952Z,60.91
2019-05-14T00:17:26.221Z,60.91
2019-05-14T00:18:22.334Z,60.72
2019-05-14T00:19:24.912Z,61.19
2019-05-14T00:20:33.002Z,60.72
2019-05-14T00:21:44.990Z,61.00
2019-05-14T00:22:42.957Z,61.10
2019-05-14T00:23:51.320Z,61.48
2019-05-14T00:24:52.691Z,61.67
2019-05-14T00:26:02.007Z,62.15
2019-05-14T00:27:03.256Z,62.24
2019-05-14T00:28:07.353Z,62.24
2019-05-14T00:29:21.980Z,62.24
2019-05-14T00:30:22.726Z,62.34
2019-05-14T00:31:35.227Z,61.86
2019-05-14T00:32:24.378Z,62.43
2019-05-14T00:33:41.743Z,62.24
2019-05-14T00:34:38.630Z,61.96
2019-05-14T00:35:51.519Z,62.15
2019-05-14T00:36:48.676Z,62.72
2019-05-14T00:38:05.374Z,62.52
2019-05-14T00:39:11.190Z,62.72
2019-05-14T00:40:17.753Z,62.43
2019-05-14T00:41:21.417Z,62.43
2019-05-14T00:42:28.850Z,62.43
2019-05-14T00:43:34.593Z,62.52
2019-05-14T00:44:33.676Z,62.34
2019-05-14T00:45:42.803Z,62.05
2019-05-14T00:46:51.559Z,62.81
2019-05-14T00:47:57.661Z,62.72
2019-05-14T00:48:53.569Z,62.43
2019-05-14T00:50:11.197Z,62.72
2019-05-14T00:51:18.469Z,62.24
2019-05-14T00:52:11.645Z,62.62
2019-05-14T00:53:24.636Z,62.62
2019-05-14T00:54:41.410Z,62.91
2019-05-14T00:55:44.097Z,63.48
2019-05-14T00:56:57.722Z,63.10
2019-05-14T00:57:42.428Z,63.45
2019-05-14T00:58:54.358Z,63.35
2019-05-14T00:59:52.348Z,63.39
2019-05-14T01:00:52.436Z,63.86
2019-05-14T01:02:02.622Z,63.83
2019-05-14T01:03:11.189Z,64.02
2019-05-14T01:04:18.356Z,64.21
2019-05-14T01:05:32.096Z,64.05
2019-05-14T01:06:47.555Z,64.21
2019-05-14T01:07:37.009Z,64.02
2019-05-14T01:08:31.870Z,64.02
2019-05-14T01:09:52.278Z,64.24
2019-05-14T01:10:47.377Z,64.24
2019-05-14T01:11:46.257Z,64.12
2019-05-14T01:12:58.035Z,64.59
2019-05-14T01:14:15.555Z,64.40
2019-05-14T01:15:14.119Z,64.12
2019-05-14T01:16:13.622Z,64.69
2019-05-14T01:17:19.875Z,64.69
2019-05-14T01:18:44.697Z,64.40
2019-05-14T01:19:42.211Z,65.16
2019-05-14T01:20:46.320Z,64.97
2019-05-14T01:21:46.627Z,64.87
2019-05-14T01:23:06.914Z,64.69
2019-05-14T01:23:44.185Z,64.78
2019-05-14T01:24:55.557Z,65.26
2019-05-14T01:25:57.508Z,65.26
2019-05-14T01:27:13.902Z,64.97
2019-05-14T01:28:27.254Z,65.16
2019-05-14T01:29:18.522Z,65.26
2019-05-14T01:30:33.276Z,65.16
2019-05-14T01:31:45.980Z,64.97
2019-05-14T01:32:51.216Z,65.55
2019-05-14T01:33:48.455Z,65.55
2019-05-14T01:34:51.963Z,65.73
2019-05-14T01:35:58.909Z,65.64
2019-05-14T01:36:52.901Z,65.92
2019-05-14T01:38:06.094Z,65.55
2019-05-14T01:39:25.967Z,66.02
2019-05-14T01:40:22.600Z,66.11
2019-05-14T01:41:13.793Z,65.92
2019-05-14T01:42:41.899Z,66.02
2019-05-14T01:43:25.995Z,65.83
2019-05-14T01:44:51.929Z,66.02
2019-05-14T01:46:07.785Z,65.92
2019-05-14T01:47:01.871Z,65.92
2019-05-14T01:47:51.878Z,66.21
2019-05-14T01:49:22.559Z,66.59
2019-05-14T01:49:58.496Z,66.31
2019-05-14T01:51:37.418Z,66.59
2019-05-14T01:52:26.063Z,66.50
2019-05-14T01:53:41.583Z,66.40
2019-05-14T01:54:47.981Z,66.31
2019-05-14T01:55:35.029Z,65.92
2019-05-14T01:57:02.108Z,66.40
2019-05-14T01:57:45.547Z,66.40
2019-05-14T01:59:04.495Z,66.69
2019-05-14T02:00:02.269Z,67.16
2019-05-14T02:01:24.579Z,67.13
2019-05-14T02:02:22.950Z,67.03
2019-05-14T02:03:40.953Z,67.03
2019-05-14T02:04:24.087Z,66.75
2019-05-14T02:05:39.045Z,67.22
2019-05-14T02:06:28.513Z,67.22
2019-05-14T02:07:39.061Z,67.41
2019-05-14T02:08:41.291Z,67.61
2019-05-14T02:10:01.911Z,68.18
2019-05-14T02:11:12.009Z,67.70
2019-05-14T02:12:38.275Z,68.27
2019-05-14T02:13:41.355Z,68.08
2019-05-14T02:14:35.048Z,67.70
2019-05-14T02:15:42.907Z,67.70
2019-05-14T02:16:57.556Z,68.27
2019-05-14T02:17:47.321Z,68.46
2019-05-14T02:18:37.086Z,68.37
2019-05-14T02:20:52.210Z,68.37
2019-05-14T02:22:41.729Z,68.56
2019-05-14T02:23:34.739Z,68.27
2019-05-14T02:24:48.905Z,68.27
2019-05-14T02:25:31.790Z,68.27
2019-05-14T02:26:52.706Z,68.18
2019-05-14T02:27:37.459Z,68.18
2019-05-14T02:28:52.001Z,68.46
2019-05-14T02:29:53.240Z,68.46
2019-05-14T02:30:56.404Z,68.46
2019-05-14T02:32:40.275Z,68.56
2019-05-14T02:34:19.705Z,68.84
2019-05-14T02:34:45.593Z,68.84
2019-05-14T02:35:55.430Z,68.56
2019-05-14T02:37:52.788Z,68.37
2019-05-14T02:38:29.622Z,69.23
2019-05-14T02:39:53.009Z,69.13
2019-05-14T02:40:25.484Z,68.94
2019-05-14T02:41:34.696Z,68.84
2019-05-14T02:42:40.534Z,69.04
2019-05-14T02:44:30.807Z,68.75
2019-05-14T02:45:45.031Z,69.04
2019-05-14T02:46:21.418Z,69.42
2019-05-14T02:47:24.082Z,68.94
2019-05-14T02:49:31.267Z,69.13
2019-05-14T02:50:50.226Z,69.04
2019-05-14T02:52:12.749Z,69.13
2019-05-14T02:52:49.920Z,69.13
2019-05-14T02:54:02.843Z,69.13
2019-05-14T02:54:59.647Z,68.94
2019-05-14T02:55:59.715Z,69.60
2019-05-14T02:57:30.624Z,68.94
2019-05-14T02:58:09.739Z,69.79
2019-05-14T02:59:50.046Z,69.42
2019-05-14T03:00:40.630Z,69.23
2019-05-14T03:01:45.372Z,69.42
2019-05-14T03:02:43.947Z,69.57
2019-05-14T03:03:49.274Z,69.51
2019-05-14T03:05:09.889Z,69.67
2019-05-14T03:06:22.159Z,69.67
2019-05-14T03:07:02.001Z,69.85
2019-05-14T03:08:19.709Z,69.67
2019-05-14T03:09:16.116Z,69.67
2019-05-14T03:10:24.747Z,69.95
2019-05-14T03:11:09.350Z,70.24
2019-05-14T03:12:43.811Z,70.24
2019-05-14T03:13:49.391Z,70.05
2019-05-14T03:14:30.807Z,70.33
2019-05-14T03:15:34.826Z,70.24
2019-05-14T03:16:52.640Z,70.33
2019-05-14T03:18:03.504Z,71.38
2019-05-14T03:19:10.472Z,70.90
2019-05-14T03:20:19.517Z,70.72
2019-05-14T03:21:39.434Z,71.47
2019-05-14T03:22:25.831Z,71.47
2019-05-14T03:23:05.034Z,71.19
2019-05-14T03:24:44.197Z,71.57
2019-05-14T03:25:39.883Z,71.86
2019-05-14T03:26:35.213Z,71.67
2019-05-14T03:28:02.136Z,71.28
2019-05-14T03:28:59.930Z,71.86
2019-05-14T03:30:11.505Z,71.86
2019-05-14T03:31:04.393Z,72.14
2019-05-14T03:32:02.518Z,72.42
2019-05-14T03:33:21.817Z,72.52
2019-05-14T03:34:22.645Z,72.24
2019-05-14T03:35:23.468Z,72.24
2019-05-14T03:36:42.650Z,72.14
2019-05-14T03:37:24.181Z,72.05
2019-05-14T03:38:51.874Z,72.14
2019-05-14T03:39:59.370Z,72.33
2019-05-14T03:40:53.933Z,72.33
2019-05-14T03:41:55.274Z,72.33
2019-05-14T03:43:01.318Z,72.42
2019-05-14T03:44:05.423Z,71.95
2019-05-14T03:45:13.008Z,72.14
2019-05-14T03:46:09.597Z,72.33
2019-05-14T03:47:20.086Z,72.14
2019-05-14T03:48:23.373Z,71.95
2019-05-14T03:49:40.143Z,72.42
2019-05-14T03:50:34.345Z,72.24
2019-05-14T03:51:50.953Z,72.14
2019-05-14T03:52:59.109Z,72.05
2019-05-14T03:54:12.119Z,72.33
2019-05-14T03:55:19.912Z,72.05
2019-05-14T03:56:11.760Z,72.24
2019-05-14T03:57:19.932Z,72.24
2019-05-14T03:58:29.834Z,72.24
2019-05-14T03:59:29.065Z,72.05
2019-05-14T04:00:39.015Z,72.71
2019-05-14T04:01:39.928Z,73.00
2019-05-14T04:02:39.543Z,72.71
2019-05-14T04:04:01.771Z,72.81
2019-05-14T04:04:49.810Z,72.71
2019-05-14T04:06:10.590Z,72.90
2019-05-14T04:07:03.127Z,73.00
2019-05-14T04:08:21.581Z,73.38
2019-05-14T04:09:12.048Z,73.19
2019-05-14T04:10:19.073Z,73.19
2019-05-14T04:11:33.871Z,72.90
2019-05-14T04:12:33.476Z,73.00
2019-05-14T04:13:31.220Z,73.00
2019-05-14T04:14:51.716Z,73.00
2019-05-14T04:15:42.704Z,73.10
2019-05-14T04:16:58.518Z,73.19
2019-05-14T04:17:53.579Z,73.28
2019-05-14T04:19:18.970Z,73.44
2019-05-14T04:20:09.307Z,73.76
2019-05-14T04:21:14.377Z,73.25
2019-05-14T04:22:00.360Z,73.28
2019-05-14T04:23:28.890Z,73.53
2019-05-14T04:24:36.434Z,73.91
2019-05-14T04:25:29.547Z,73.91
2019-05-14T04:26:30.472Z,73.63
2019-05-14T04:27:50.373Z,74.43
2019-05-14T04:28:55.088Z,74.58
2019-05-14T04:29:45.871Z,74.29
2019-05-14T04:30:59.545Z,74.77
2019-05-14T04:32:03.989Z,74.58
2019-05-14T04:33:10.498Z,74.96
2019-05-14T04:34:21.740Z,74.48
2019-05-14T04:35:30.657Z,74.39
2019-05-14T04:36:33.539Z,74.39
2019-05-14T04:37:28.889Z,74.67
2019-05-14T04:38:40.916Z,74.77
2019-05-14T04:39:50.223Z,75.38
2019-05-14T04:40:45.334Z,75.19
2019-05-14T04:41:55.272Z,74.96
2019-05-14T04:43:03.579Z,75.09
2019-05-14T04:44:05.423Z,75.09
2019-05-14T04:45:10.743Z,75.09
2019-05-14T04:46:09.988Z,74.99
2019-05-14T04:47:25.209Z,75.38
2019-05-14T04:48:32.343Z,74.80
2019-05-14T04:49:45.301Z,75.19
2019-05-14T04:50:50.028Z,75.28
2019-05-14T04:51:30.225Z,75.38
2019-05-14T04:52:49.051Z,75.38
2019-05-14T04:53:55.565Z,75.19
2019-05-14T04:54:59.282Z,76.14
2019-05-14T04:56:25.478Z,75.76
2019-05-14T04:57:30.421Z,75.67
2019-05-14T04:58:29.916Z,75.67
2019-05-14T04:59:39.558Z,74.80
2019-05-14T05:00:39.323Z,75.28
2019-05-14T05:01:42.306Z,75.09
2019-05-14T05:03:12.620Z,75.09
2019-05-14T05:04:14.059Z,74.99
2019-05-14T05:05:00.042Z,74.99
2019-05-14T05:05:55.445Z,74.80
2019-05-14T05:07:29.673Z,74.99
2019-05-14T05:08:14.192Z,74.99
2019-05-14T05:09:35.803Z,74.62
2019-05-14T05:10:25.670Z,75.23
2019-05-14T05:11:49.677Z,74.75
2019-05-14T05:12:43.368Z,75.42
2019-05-14T05:13:45.148Z,74.84
2019-05-14T05:14:58.569Z,75.04
2019-05-14T05:16:11.488Z,75.23
2019-05-14T05:17:10.567Z,74.75
2019-05-14T05:18:32.384Z,75.04
2019-05-14T05:19:30.953Z,74.65
2019-05-14T05:20:29.481Z,74.56
2019-05-14T05:21:19.193Z,74.75
2019-05-14T05:22:48.894Z,74.56
2019-05-14T05:23:38.033Z,74.75
2019-05-14T05:24:48.454Z,74.65
2019-05-14T05:25:45.439Z,74.65
2019-05-14T05:27:29.789Z,74.46
2019-05-14T05:28:34.912Z,74.75
2019-05-14T05:29:30.822Z,74.75
2019-05-14T05:31:32.779Z,74.65
2019-05-14T05:32:30.739Z,75.04
2019-05-14T05:33:34.804Z,74.46
2019-05-14T05:34:45.188Z,74.56
2019-05-14T05:35:49.500Z,74.65
2019-05-14T05:36:35.120Z,74.46
2019-05-14T05:37:50.845Z,74.65
2019-05-14T05:39:12.153Z,74.65
2019-05-14T05:40:03.351Z,74.60
2019-05-14T05:43:09.218Z,74.60
2019-05-14T05:44:00.200Z,74.50
2019-05-14T05:45:12.806Z,74.50
2019-05-14T05:46:18.878Z,74.60
2019-05-14T05:47:36.070Z,74.40
2019-05-14T05:48:20.842Z,73.83
2019-05-14T05:49:53.894Z,74.12
2019-05-14T05:50:53.597Z,74.60
2019-05-14T05:51:39.572Z,74.60
2019-05-14T05:53:20.443Z,73.83
2019-05-14T05:54:05.695Z,73.55
2019-05-14T05:55:08.841Z,73.65
2019-05-14T05:56:04.792Z,73.36
2019-05-14T05:57:18.667Z,73.65
2019-05-14T05:58:30.179Z,74.21
2019-05-14T05:59:39.294Z,74.21
2019-05-14T06:00:20.795Z,74.02
2019-05-14T06:01:45.714Z,73.74
2019-05-14T06:02:59.032Z,73.55
2019-05-14T06:03:42.318Z,73.55
2019-05-14T06:05:02.190Z,73.17
2019-05-14T06:05:59.257Z,73.65
2019-05-14T06:07:03.434Z,73.74
2019-05-14T06:08:39.020Z,73.83
2019-05-14T06:09:29.761Z,73.55
2019-05-14T06:10:13.998Z,73.17
2019-05-14T06:11:38.132Z,74.12
2019-05-14T06:12:49.015Z,73.83
2019-05-14T06:13:39.878Z,74.02
2019-05-14T06:14:34.404Z,73.65
2019-05-14T06:16:12.814Z,73.74
2019-05-14T06:16:48.666Z,73.65
2019-05-14T06:18:18.347Z,73.26
2019-05-14T06:19:04.845Z,73.55
2019-05-14T06:20:18.880Z,73.74
2019-05-14T06:21:28.994Z,73.55
2019-05-14T06:22:32.720Z,72.97
2019-05-14T06:23:38.483Z,72.97
2019-05-14T06:24:40.324Z,73.17
2019-05-14T06:25:40.628Z,73.17
2019-05-14T06:27:05.106Z,73.74
2019-05-14T06:27:40.535Z,74.12
2019-05-14T06:29:02.457Z,73.83
2019-05-14T06:30:09.218Z,74.31
2019-05-14T06:31:19.491Z,74.02
2019-05-14T06:32:12.010Z,74.40
2019-05-14T06:33:23.885Z,73.83
2019-05-14T06:34:29.264Z,73.55
2019-05-14T06:35:39.484Z,73.58
2019-05-14T06:36:29.290Z,72.97
2019-05-14T06:37:33.643Z,72.97
2019-05-14T06:38:42.251Z,73.45
2019-05-14T06:39:48.311Z,73.30
2019-05-14T06:40:55.780Z,73.17
2019-05-14T06:42:03.681Z,73.26
2019-05-14T06:42:52.847Z,73.36
2019-05-14T06:44:19.046Z,73.07
2019-05-14T06:45:03.598Z,72.97
2019-05-14T06:46:18.998Z,73.11
2019-05-14T06:47:29.307Z,73.65
2019-05-14T06:48:29.907Z,73.65
2019-05-14T06:49:44.280Z,73.65
2019-05-14T06:50:50.208Z,73.45
2019-05-14T06:51:55.345Z,73.68
2019-05-14T06:52:58.086Z,74.44
2019-05-14T06:53:59.862Z,73.77
2019-05-14T06:55:05.095Z,73.21
2019-05-14T06:56:08.329Z,73.77
2019-05-14T06:57:18.314Z,73.87
2019-05-14T06:58:09.210Z,73.87
2019-05-14T06:59:28.690Z,74.25
2019-05-14T07:00:29.680Z,73.77
2019-05-14T07:01:32.169Z,73.11
2019-05-14T07:02:43.274Z,73.30
2019-05-14T07:03:48.859Z,73.21
2019-05-14T07:04:58.904Z,73.30
2019-05-14T07:05:55.235Z,73.49
2019-05-14T07:07:04.877Z,73.39
2019-05-14T07:08:18.736Z,74.54
2019-05-14T07:09:14.037Z,74.35
2019-05-14T07:10:22.407Z,73.96
2019-05-14T07:11:25.272Z,74.35
2019-05-14T07:12:38.619Z,74.44
2019-05-14T07:13:33.629Z,73.30
2019-05-14T07:14:38.773Z,72.82
2019-05-14T07:15:58.183Z,73.01
2019-05-14T07:16:48.858Z,72.25
2019-05-14T07:17:52.043Z,72.34
2019-05-14T07:19:03.425Z,72.72
2019-05-14T07:20:10.792Z,73.01
2019-05-14T07:21:14.999Z,73.01
2019-05-14T07:22:19.450Z,72.67
2019-05-14T07:23:22.078Z,72.38
2019-05-14T07:24:28.216Z,72.00
2019-05-14T07:25:34.890Z,72.38
2019-05-14T07:26:42.793Z,72.28
2019-05-14T07:27:41.971Z,72.19
2019-05-14T07:28:48.662Z,72.28
2019-05-14T07:29:53.871Z,72.57
2019-05-14T07:31:00.324Z,72.38
2019-05-14T07:32:01.967Z,72.38
2019-05-14T07:33:10.069Z,72.09
2019-05-14T07:34:19.603Z,71.91
2019-05-14T07:35:28.759Z,72.09
2019-05-14T07:36:29.059Z,72.00
2019-05-14T07:37:33.337Z,72.19
2019-05-14T07:38:41.537Z,71.52
2019-05-14T07:39:45.125Z,71.33
2019-05-14T07:40:51.280Z,70.76
2019-05-14T07:41:52.820Z,71.04
2019-05-14T07:43:08.936Z,70.09
2019-05-14T07:44:09.935Z,71.23
2019-05-14T07:45:13.114Z,70.95
2019-05-14T07:46:20.293Z,70.67
2019-05-14T07:47:19.579Z,70.86
2019-05-14T07:48:28.664Z,70.47
2019-05-14T07:49:39.152Z,70.57
2019-05-14T07:50:42.949Z,70.95
2019-05-14T07:51:53.924Z,70.76
2019-05-14T07:52:58.625Z,70.95
2019-05-14T07:54:03.656Z,71.23
2019-05-14T07:55:09.100Z,70.76
2019-05-14T07:56:20.257Z,70.00
2019-05-14T07:57:18.941Z,70.47
2019-05-14T07:58:14.747Z,70.67
2019-05-14T07:59:37.693Z,70.38
2019-05-14T08:00:29.632Z,70.42
2019-05-14T08:01:40.675Z,70.76
2019-05-14T08:02:39.422Z,70.89
2019-05-14T08:03:55.225Z,71.04
2019-05-14T08:04:43.865Z,71.08
2019-05-14T08:05:53.704Z,70.89
2019-05-14T08:07:03.956Z,70.79
2019-05-14T08:08:00.989Z,71.08
2019-05-14T08:09:14.921Z,70.42
2019-05-14T08:10:14.828Z,70.61
2019-05-14T08:11:25.275Z,70.22
2019-05-14T08:12:33.577Z,70.03
2019-05-14T08:13:35.536Z,70.22
2019-05-14T08:14:57.638Z,69.56
2019-05-14T08:15:48.840Z,69.37
2019-05-14T08:16:59.327Z,69.56
2019-05-14T08:17:55.936Z,69.84
2019-05-14T08:19:04.822Z,70.22
2019-05-14T08:20:13.772Z,70.13
2019-05-14T08:21:04.965Z,70.03
2019-05-14T08:22:18.557Z,70.13
2019-05-14T08:23:24.541Z,69.93
2019-05-14T08:24:29.545Z,69.74
2019-05-14T08:25:47.910Z,69.65
2019-05-14T08:26:42.851Z,69.37
2019-05-14T08:27:42.896Z,69.74
2019-05-14T08:28:50.581Z,69.56
2019-05-14T08:29:44.444Z,69.02
2019-05-14T08:30:58.501Z,68.82
2019-05-14T08:32:01.867Z,68.92
2019-05-14T08:33:11.090Z,69.21
2019-05-14T08:34:19.115Z,69.21
2019-05-14T08:35:33.958Z,68.92
2019-05-14T08:36:22.373Z,69.11
2019-05-14T08:37:33.848Z,68.73
2019-05-14T08:38:40.617Z,69.02
2019-05-14T08:39:56.377Z,69.31
2019-05-14T08:40:54.758Z,68.54
2019-05-14T08:42:03.825Z,68.54
2019-05-14T08:43:05.218Z,67.87
2019-05-14T08:44:14.543Z,67.77
2019-05-14T08:45:09.428Z,67.58
2019-05-14T08:46:24.601Z,67.21
2019-05-14T08:47:29.100Z,67.21
2019-05-14T08:48:23.482Z,66.53
2019-05-14T08:49:39.003Z,67.11
2019-05-14T08:50:45.203Z,66.63
2019-05-14T08:51:45.315Z,67.77
2019-05-14T08:52:58.135Z,67.11
2019-05-14T08:53:55.469Z,66.25
2019-05-14T08:55:09.179Z,65.77
2019-05-14T08:56:12.550Z,65.42
2019-05-14T08:57:18.860Z,65.04
2019-05-14T08:58:15.630Z,65.90
2019-05-14T08:59:21.507Z,65.14
2019-05-14T09:00:38.386Z,64.85
2019-05-14T09:01:33.196Z,64.85
2019-05-14T09:02:43.605Z,65.33
2019-05-14T09:03:49.018Z,65.33
2019-05-14T09:04:52.594Z,65.42
2019-05-14T09:06:10.188Z,65.23
2019-05-14T09:07:23.825Z,64.47
2019-05-14T09:08:08.739Z,64.09
2019-05-14T09:09:22.158Z,63.80
2019-05-14T09:10:16.064Z,63.80
2019-05-14T09:11:43.974Z,64.09
2019-05-14T09:12:28.255Z,64.56
2019-05-14T09:13:39.741Z,65.33
2019-05-14T09:14:40.862Z,64.09
2019-05-14T09:15:45.281Z,64.28
2019-05-14T09:16:51.334Z,64.31
2019-05-14T09:18:03.165Z,64.18
2019-05-14T09:19:08.687Z,63.13
2019-05-14T09:20:11.323Z,63.80
2019-05-14T09:21:21.457Z,63.93
2019-05-14T09:22:23.710Z,63.73
2019-05-14T09:23:28.513Z,62.78
2019-05-14T09:24:32.336Z,62.30
2019-05-14T09:25:48.679Z,62.30
2019-05-14T09:26:52.309Z,62.30
2019-05-14T09:28:28.427Z,62.40
2019-05-14T09:29:16.976Z,62.49
2019-05-14T09:30:28.910Z,61.92
2019-05-14T09:31:25.416Z,62.87
2019-05-14T09:32:18.656Z,62.97
2019-05-14T09:33:24.441Z,63.00
2019-05-14T09:34:33.510Z,62.43
2019-05-14T09:36:07.763Z,61.28
2019-05-14T09:36:48.707Z,61.66
2019-05-14T09:37:44.300Z,61.57
2019-05-14T09:38:58.201Z,61.09
2019-05-14T09:40:19.825Z,61.57
2019-05-14T09:41:08.143Z,61.38
2019-05-14T09:42:03.578Z,60.99
2019-05-14T09:43:10.453Z,61.47
2019-05-14T09:44:22.942Z,62.04
2019-05-14T09:45:34.214Z,61.38
2019-05-14T09:46:24.182Z,59.75
2019-05-14T09:47:30.249Z,58.03
2019-05-14T09:48:48.376Z,58.32
2019-05-14T09:49:53.494Z,58.32
2019-05-14T09:50:48.852Z,58.80
2019-05-14T09:51:50.332Z,59.37
2019-05-14T09:53:09.463Z,61.22
2019-05-14T09:54:15.328Z,61.60
2019-05-14T09:55:20.640Z,59.40
2019-05-14T09:56:11.660Z,59.01
2019-05-14T09:57:11.667Z,58.44
2019-05-14T09:58:28.129Z,58.06
2019-05-14T09:59:33.285Z,58.34
2019-05-14T10:00:49.987Z,57.87
2019-05-14T10:01:39.804Z,57.48
2019-05-14T10:02:48.860Z,58.63
2019-05-14T10:03:51.443Z,58.92
2019-05-14T10:04:50.788Z,58.25
2019-05-14T10:06:00.563Z,57.87
2019-05-14T10:07:08.617Z,57.10
2019-05-14T10:08:15.223Z,57.10
2019-05-14T10:09:17.805Z,56.15
2019-05-14T10:10:30.267Z,56.82
2019-05-14T10:11:29.475Z,57.04
2019-05-14T10:12:52.439Z,56.84
2019-05-14T10:13:48.307Z,56.84
2019-05-14T10:14:39.206Z,55.60
2019-05-14T10:15:59.304Z,55.22
2019-05-14T10:16:53.583Z,55.22
2019-05-14T10:18:01.605Z,54.83
2019-05-14T10:19:11.510Z,55.41
2019-05-14T10:20:36.578Z,55.88
2019-05-14T10:21:20.227Z,55.79
2019-05-14T10:22:34.878Z,55.51
2019-05-14T10:23:38.948Z,54.83
2019-05-14T10:24:32.333Z,54.64
2019-05-14T10:25:42.231Z,55.22
2019-05-14T10:26:44.837Z,54.93
2019-05-14T10:27:58.945Z,55.22
2019-05-14T10:28:58.940Z,55.60
2019-05-14T10:30:18.079Z,54.93
2019-05-14T10:31:09.414Z,53.49
2019-05-14T10:32:22.655Z,53.20
2019-05-14T10:33:24.813Z,53.30
2019-05-14T10:34:30.872Z,53.40
2019-05-14T10:35:43.468Z,52.83
2019-05-14T10:36:48.770Z,53.59
2019-05-14T10:37:54.361Z,53.49
2019-05-14T10:38:46.967Z,53.69
2019-05-14T10:39:49.980Z,54.16
2019-05-14T10:41:02.955Z,53.69
2019-05-14T10:42:03.686Z,54.07
2019-05-14T10:43:13.464Z,54.74
2019-05-14T10:44:25.505Z,53.81
2019-05-14T10:45:38.269Z,54.48
2019-05-14T10:46:33.815Z,54.67
2019-05-14T10:47:29.137Z,54.48
2019-05-14T10:48:39.778Z,54.67
2019-05-14T10:49:44.791Z,54.48
2019-05-14T10:50:56.181Z,53.14
2019-05-14T10:51:58.532Z,53.04
2019-05-14T10:52:59.607Z,53.81
2019-05-14T10:54:18.818Z,53.52
2019-05-14T10:55:20.665Z,53.81
2019-05-14T10:56:19.003Z,53.62
2019-05-14T10:57:33.897Z,52.75
2019-05-14T10:58:35.024Z,52.56
2019-05-14T10:59:50.084Z,52.66
2019-05-14T11:00:42.189Z,51.99
2019-05-14T11:01:54.659Z,51.99
2019-05-14T11:02:50.716Z,51.99
2019-05-14T11:04:09.582Z,51.89
2019-05-14T11:05:00.458Z,51.99
2019-05-14T11:06:05.897Z,52.18
2019-05-14T11:07:18.633Z,52.56
2019-05-14T11:08:23.007Z,52.56
2019-05-14T11:09:37.897Z,52.28
2019-05-14T11:10:29.699Z,51.79
2019-05-14T11:11:30.100Z,51.70
2019-05-14T11:12:41.057Z,51.70
2019-05-14T11:13:57.858Z,52.56
2019-05-14T11:14:53.846Z,52.28
2019-05-14T11:15:55.625Z,52.56
2019-05-14T11:16:59.821Z,52.28
2019-05-14T11:18:12.229Z,51.63
2019-05-14T11:19:09.976Z,52.30
2019-05-14T11:20:12.031Z,52.59
2019-05-14T11:21:39.100Z,51.92
2019-05-14T11:22:37.961Z,50.67
2019-05-14T11:23:38.598Z,49.91
2019-05-14T11:24:45.235Z,49.81
2019-05-14T11:25:48.879Z,49.71
2019-05-14T11:27:04.923Z,48.75
2019-05-14T11:28:01.435Z,49.81
2019-05-14T11:29:11.376Z,49.05
2019-05-14T11:30:20.196Z,49.14
2019-05-14T11:31:13.442Z,48.40
2019-05-14T11:32:41.194Z,49.16
2019-05-14T11:33:30.548Z,49.55
2019-05-14T11:35:19.090Z,49.65
2019-05-14T11:36:21.265Z,49.55
2019-05-14T11:37:19.008Z,48.30
2019-05-14T11:38:36.653Z,48.59
2019-05-14T11:39:09.239Z,49.26
2019-05-14T11:40:21.484Z,48.90
2019-05-14T11:41:23.885Z,49.76
2019-05-14T11:42:34.303Z,49.19
2019-05-14T11:43:17.927Z,49.19
2019-05-14T11:44:35.234Z,48.23
2019-05-14T11:45:34.317Z,48.33
2019-05-14T11:46:57.394Z,48.33
2019-05-14T11:47:48.661Z,48.83
2019-05-14T11:48:50.323Z,47.37
2019-05-14T11:49:52.304Z,46.79
2019-05-14T11:51:04.258Z,45.93
2019-05-14T11:52:07.700Z,46.12
2019-05-14T11:53:10.105Z,46.22
2019-05-14T11:54:22.765Z,46.22
2019-05-14T11:55:20.052Z,47.66
2019-05-14T11:56:24.640Z,48.04
2019-05-14T11:57:27.438Z,48.64
2019-05-14T11:58:32.468Z,49.88
2019-05-14T11:59:47.525Z,48.93
2019-05-14T12:00:52.549Z,48.93
2019-05-14T12:01:54.829Z,49.79
2019-05-14T12:03:00.763Z,49.12
2019-05-14T12:04:08.806Z,46.91
2019-05-14T12:05:10.699Z,46.34
2019-05-14T12:06:19.309Z,45.47
2019-05-14T12:07:18.768Z,45.67
2019-05-14T12:08:18.836Z,45.88
2019-05-14T12:09:38.900Z,46.74
2019-05-14T12:10:32.754Z,47.97
2019-05-14T12:11:38.742Z,47.51
2019-05-14T12:12:43.822Z,47.03
2019-05-14T12:13:48.704Z,46.36
2019-05-14T12:14:58.244Z,45.21
2019-05-14T12:16:05.047Z,45.50
2019-05-14T12:17:09.456Z,45.21
2019-05-14T12:18:10.377Z,44.73
2019-05-14T12:19:18.748Z,45.40
2019-05-14T12:20:32.008Z,46.17
2019-05-14T12:21:31.908Z,45.68
2019-05-14T12:22:34.267Z,45.21
2019-05-14T12:23:35.703Z,45.67
2019-05-14T12:24:45.954Z,46.26
2019-05-14T12:25:53.128Z,46.07
2019-05-14T12:26:58.583Z,46.36
2019-05-14T12:28:02.155Z,47.41
2019-05-14T12:29:11.077Z,47.51
2019-05-14T12:30:16.205Z,47.32
2019-05-14T12:31:14.054Z,46.65
2019-05-14T12:32:30.050Z,45.98
2019-05-14T12:33:34.778Z,44.44
2019-05-14T12:34:49.205Z,43.57
2019-05-14T12:35:40.498Z,43.96
2019-05-14T12:36:44.703Z,44.34
2019-05-14T12:37:58.529Z,45.40
2019-05-14T12:38:55.395Z,45.98
2019-05-14T12:40:02.440Z,45.88
2019-05-14T12:41:19.076Z,46.45
2019-05-14T12:42:12.505Z,47.51
2019-05-14T12:43:20.790Z,46.26
2019-05-14T12:44:37.222Z,43.96
2019-05-14T12:45:35.660Z,43.19
2019-05-14T12:46:42.424Z,43.65
2019-05-14T12:47:40.073Z,43.94
2019-05-14T12:48:59.011Z,43.94
2019-05-14T12:50:02.512Z,44.23
2019-05-14T12:50:55.757Z,43.94
2019-05-14T12:52:17.791Z,44.34
2019-05-14T12:53:11.336Z,44.73
2019-05-14T12:54:14.416Z,45.78
2019-05-14T12:55:21.691Z,44.70
2019-05-14T12:56:24.065Z,43.77
2019-05-14T12:57:30.193Z,43.10
2019-05-14T12:58:33.595Z,42.52
2019-05-14T12:59:43.533Z,42.79
2019-05-14T13:00:48.750Z,42.40
2019-05-14T13:01:50.718Z,42.52
2019-05-14T13:02:59.528Z,43.29
2019-05-14T13:03:59.232Z,44.06
2019-05-14T13:05:09.679Z,44.82
2019-05-14T13:06:14.608Z,44.82
2019-05-14T13:07:24.541Z,44.73
2019-05-14T13:08:23.738Z,44.06
2019-05-14T13:09:43.811Z,42.79
2019-05-14T13:10:43.710Z,41.27
2019-05-14T13:11:44.738Z,41.83
2019-05-14T13:12:50.891Z,42.50
2019-05-14T13:13:53.970Z,43.84
2019-05-14T13:15:01.759Z,42.60
2019-05-14T13:16:04.853Z,42.60
2019-05-14T13:17:01.877Z,42.40
2019-05-14T13:18:19.700Z,42.69
2019-05-14T13:19:28.496Z,43.07
2019-05-14T13:20:31.938Z,43.55
2019-05-14T13:21:32.827Z,42.33
2019-05-14T13:22:42.274Z,41.83
2019-05-14T13:23:40.027Z,41.93
2019-05-14T13:24:55.280Z,41.83
2019-05-14T13:25:58.588Z,42.98
2019-05-14T13:26:55.388Z,42.79
2019-05-14T13:28:10.449Z,41.85
2019-05-14T13:29:11.014Z,41.46
2019-05-14T13:30:14.047Z,42.33
2019-05-14T13:31:19.073Z,43.67
2019-05-14T13:32:29.115Z,43.77
2019-05-14T13:33:41.106Z,42.71
2019-05-14T13:34:37.186Z,42.61
2019-05-14T13:35:48.291Z,42.61
2019-05-14T13:37:06.209Z,42.52
2019-05-14T13:37:54.241Z,42.81
2019-05-14T13:39:04.288Z,43.57
2019-05-14T13:39:59.206Z,42.71
2019-05-14T13:41:10.642Z,42.71
2019-05-14T13:42:23.243Z,43.10
2019-05-14T13:43:30.364Z,42.52
2019-05-14T13:44:33.810Z,42.23
2019-05-14T13:45:40.673Z,43.87
2019-05-14T13:46:42.332Z,42.52
2019-05-14T13:47:48.526Z,42.71
2019-05-14T13:48:58.946Z,44.24
2019-05-14T13:50:01.697Z,43.74
2019-05-14T13:51:04.986Z,42.88
2019-05-14T13:52:05.594Z,42.61
2019-05-14T13:53:14.415Z,42.30
2019-05-14T13:54:21.691Z,41.56
2019-05-14T13:55:22.106Z,41.27
2019-05-14T13:56:28.200Z,41.85
2019-05-14T13:57:41.573Z,42.71
2019-05-14T13:58:40.067Z,42.61
2019-05-14T13:59:51.636Z,42.33
2019-05-14T14:00:55.531Z,42.61
2019-05-14T14:02:02.390Z,42.02
2019-05-14T14:03:03.529Z,42.23
2019-05-14T14:04:10.623Z,42.81
2019-05-14T14:05:13.673Z,42.23
2019-05-14T14:06:20.597Z,42.52
2019-05-14T14:07:35.806Z,42.33
2019-05-14T14:08:29.119Z,42.33
2019-05-14T14:09:36.239Z,42.04
2019-05-14T14:10:51.589Z,42.33